createdAt,value
2023-03-21T00:02:21.851Z,28.40
2023-03-21T00:04:52.606Z,32.50
2023-03-21T00:07:21.382Z,34.10
2023-03-21T00:09:48.986Z,30.80
2023-03-21T00:12:16.669Z,26.10
2023-03-21T00:14:44.315Z,27.20
2023-03-21T00:17:11.972Z,27.90
2023-03-21T00:19:39.532Z,25.10
2023-03-21T00:22:08.864Z,28.30
2023-03-21T00:24:37.409Z,28.40
2023-03-21T00:27:30.233Z,29.80
2023-03-21T00:29:53.571Z,27.10
2023-03-21T00:32:21.871Z,30.60
2023-03-21T00:35:00.369Z,33.60
2023-03-21T00:37:37.115Z,32.10
2023-03-21T00:40:08.606Z,28.80
2023-03-21T00:42:37.054Z,31.40
2023-03-21T00:45:05.493Z,21.90
2023-03-21T00:47:33.128Z,31.00
2023-03-21T00:50:00.687Z,23.70
2023-03-21T00:52:40.268Z,30.10
2023-03-21T00:55:16.203Z,20.30
2023-03-21T00:57:47.485Z,21.80
2023-03-21T01:00:19.185Z,22.60
2023-03-21T01:02:47.204Z,27.00
2023-03-21T01:05:16.979Z,24.10
2023-03-21T01:07:44.550Z,23.20
2023-03-21T01:10:12.277Z,23.70
2023-03-21T01:12:39.858Z,19.70
2023-03-21T01:15:07.800Z,19.20
2023-03-21T01:17:35.375Z,24.40
2023-03-21T01:20:03.705Z,23.70
2023-03-21T01:22:31.290Z,22.60
2023-03-21T01:25:12.047Z,25.20
2023-03-21T01:27:46.491Z,14.50
2023-03-21T01:30:20.236Z,15.90
2023-03-21T01:32:50.485Z,20.00
2023-03-21T01:35:18.658Z,21.20
2023-03-21T01:37:46.236Z,18.00
2023-03-21T01:40:19.861Z,16.50
2023-03-21T01:42:47.707Z,19.20
2023-03-21T01:45:52.816Z,18.80
2023-03-21T01:48:23.228Z,16.50
2023-03-21T01:50:52.059Z,10.70
2023-03-21T01:53:22.090Z,14.20
2023-03-21T01:58:18.856Z,10.90
2023-03-21T02:00:49.634Z,15.50
2023-03-21T02:03:29.532Z,17.10
2023-03-21T02:06:08.443Z,12.50
2023-03-21T02:08:39.701Z,17.70
2023-03-21T02:11:08.308Z,15.40
2023-03-21T02:13:35.998Z,16.30
2023-03-21T02:16:15.703Z,18.80
2023-03-21T02:19:02.216Z,17.80
2023-03-21T02:21:53.336Z,18.20
2023-03-21T02:24:46.284Z,18.30
2023-03-21T02:27:18.541Z,18.70
2023-03-21T02:30:14.918Z,21.60
2023-03-21T02:32:53.664Z,21.20
2023-03-21T02:35:54.352Z,20.40
2023-03-21T02:38:47.087Z,22.30
2023-03-21T02:41:27.446Z,21.80
2023-03-21T02:44:19.816Z,23.80
2023-03-21T02:47:04.594Z,21.30
2023-03-21T02:49:58.687Z,26.60
2023-03-21T02:52:38.755Z,31.70
2023-03-21T02:55:12.719Z,31.50
2023-03-21T02:57:44.112Z,26.20
2023-03-21T03:00:17.878Z,24.30
2023-03-21T03:02:45.636Z,27.70
2023-03-21T03:05:24.337Z,26.90
2023-03-21T03:08:10.793Z,29.60
2023-03-21T03:10:47.382Z,25.00
2023-03-21T03:13:20.692Z,28.10
2023-03-21T03:16:11.975Z,27.70
2023-03-21T03:18:52.494Z,26.00
2023-03-21T03:21:29.029Z,29.90
2023-03-21T03:24:03.670Z,27.60
2023-03-21T03:26:41.277Z,27.50
2023-03-21T03:29:14.869Z,28.10
2023-03-21T03:31:59.738Z,27.60
2023-03-21T03:34:33.523Z,30.90
2023-03-21T03:37:04.324Z,29.40
2023-03-21T03:39:43.913Z,26.60
2023-03-21T03:42:28.577Z,27.80
2023-03-21T03:44:57.504Z,25.40
2023-03-21T03:47:47.712Z,26.40
2023-03-21T03:50:47.426Z,29.60
2023-03-21T03:53:21.053Z,29.80
2023-03-21T03:55:49.841Z,29.00
2023-03-21T03:58:23.919Z,26.60
2023-03-21T04:03:22.746Z,25.60
2023-03-21T04:05:50.376Z,22.70
2023-03-21T04:08:17.984Z,26.30
2023-03-21T04:10:45.545Z,26.00
2023-03-21T04:13:13.098Z,26.90
2023-03-21T04:15:40.736Z,25.30
2023-03-21T04:18:08.310Z,26.90
2023-03-21T04:20:37.450Z,24.50
2023-03-21T04:23:05.944Z,25.50
2023-03-21T04:25:35.048Z,28.50
2023-03-21T04:28:03.594Z,27.20
2023-03-21T04:30:31.178Z,27.60
2023-03-21T04:32:58.736Z,24.70
2023-03-21T04:35:26.901Z,22.90
2023-03-21T04:37:55.280Z,21.90
2023-03-21T04:40:23.079Z,23.30
2023-03-21T04:42:51.301Z,21.90
2023-03-21T04:45:18.925Z,22.90
2023-03-21T04:47:46.572Z,27.60
2023-03-21T04:50:14.362Z,24.40
2023-03-21T04:52:42.006Z,25.70
2023-03-21T04:55:10.441Z,30.40
2023-03-21T04:57:38.412Z,33.90
2023-03-21T05:00:09.385Z,29.80
2023-03-21T05:02:38.275Z,29.10
2023-03-21T05:05:06.822Z,21.40
2023-03-21T05:07:34.386Z,25.10
2023-03-21T05:10:02.654Z,24.30
2023-03-21T05:12:30.421Z,24.50
2023-03-21T05:14:57.989Z,23.00
2023-03-21T05:17:25.762Z,21.80
2023-03-21T05:19:53.309Z,23.90
2023-03-21T05:22:20.867Z,23.90
2023-03-21T05:24:48.428Z,24.10
2023-03-21T05:27:17.844Z,20.20
2023-03-21T05:29:45.433Z,20.90
2023-03-21T05:32:12.992Z,22.20
2023-03-21T05:34:40.674Z,23.40
2023-03-21T05:37:08.242Z,23.90
2023-03-21T05:39:35.802Z,21.80
2023-03-21T05:42:03.434Z,24.30
2023-03-21T05:44:30.972Z,23.00
2023-03-21T05:46:58.542Z,22.40
2023-03-21T05:49:26.143Z,26.30
2023-03-21T05:51:53.673Z,18.90
2023-03-21T05:54:21.275Z,22.10
2023-03-21T05:56:48.888Z,15.70
2023-03-21T05:59:16.509Z,23.50
2023-03-21T06:01:44.096Z,19.90
2023-03-21T06:04:11.721Z,16.30
2023-03-21T06:06:39.386Z,13.80
2023-03-21T06:09:06.979Z,23.70
2023-03-21T06:11:37.044Z,21.80
2023-03-21T06:16:32.133Z,20.00
2023-03-21T06:18:59.676Z,19.70
2023-03-21T06:21:27.289Z,21.50
2023-03-21T06:23:54.886Z,22.50
2023-03-21T06:26:22.586Z,19.70
2023-03-21T06:28:51.193Z,25.10
2023-03-21T06:31:19.167Z,22.40
2023-03-21T06:33:46.739Z,22.10
2023-03-21T06:36:14.394Z,15.60
2023-03-21T06:38:41.953Z,17.50
2023-03-21T06:41:10.502Z,19.40
2023-03-21T06:43:38.092Z,19.80
2023-03-21T06:46:06.105Z,19.80
2023-03-21T06:48:33.699Z,14.00
2023-03-21T06:51:01.249Z,15.00
2023-03-21T06:53:28.828Z,19.70
2023-03-21T06:55:56.997Z,14.00
2023-03-21T06:58:24.644Z,17.30
2023-03-21T07:00:52.651Z,18.30
2023-03-21T07:03:20.218Z,14.50
2023-03-21T07:05:47.854Z,16.60
2023-03-21T07:08:15.432Z,17.10
2023-03-21T07:10:45.556Z,11.30
2023-03-21T07:13:13.735Z,12.40
2023-03-21T07:15:41.778Z,11.50
2023-03-21T07:18:10.052Z,13.10
2023-03-21T07:20:37.627Z,14.70
2023-03-21T07:23:05.309Z,20.10
2023-03-21T07:25:33.544Z,19.80
2023-03-21T07:28:01.125Z,17.20
2023-03-21T07:30:28.744Z,18.70
2023-03-21T07:32:56.277Z,20.50
2023-03-21T07:35:23.827Z,17.40
2023-03-21T07:37:51.387Z,14.40
2023-03-21T07:40:19.111Z,18.90
2023-03-21T07:42:49.022Z,16.30
2023-03-21T07:45:19.300Z,23.10
2023-03-21T07:47:49.117Z,14.20
2023-03-21T07:50:17.435Z,20.50
2023-03-21T07:52:45.129Z,19.90
2023-03-21T07:55:13.134Z,23.60
2023-03-21T07:57:40.720Z,25.60
2023-03-21T08:00:09.334Z,17.60
2023-03-21T08:02:36.928Z,20.80
2023-03-21T08:05:04.876Z,24.50
2023-03-21T08:07:32.578Z,20.90
2023-03-21T08:10:00.153Z,24.50
2023-03-21T08:12:27.718Z,26.30
2023-03-21T08:14:55.271Z,23.70
2023-03-21T08:17:22.863Z,21.50
2023-03-21T08:19:50.436Z,18.30
2023-03-21T08:22:18.014Z,23.00
2023-03-21T08:24:45.676Z,23.70
2023-03-21T08:27:13.224Z,17.90
2023-03-21T08:29:40.830Z,16.30
2023-03-21T08:32:09.035Z,21.80
2023-03-21T08:34:36.681Z,23.50
2023-03-21T08:37:04.292Z,22.40
2023-03-21T08:39:31.918Z,18.30
2023-03-21T08:41:59.478Z,19.10
2023-03-21T08:44:27.099Z,21.40
2023-03-21T08:46:54.662Z,21.10
2023-03-21T08:49:22.220Z,15.70
2023-03-21T08:51:49.744Z,24.20
2023-03-21T08:54:22.185Z,22.40
2023-03-21T08:56:49.753Z,26.20
2023-03-21T08:59:17.476Z,16.70
2023-03-21T09:01:45.132Z,25.40
2023-03-21T09:04:13.036Z,20.60
2023-03-21T09:06:41.127Z,15.80
2023-03-21T09:09:08.711Z,21.70
2023-03-21T09:11:36.275Z,20.70
2023-03-21T09:14:04.494Z,19.70
2023-03-21T09:16:32.207Z,22.80
2023-03-21T09:19:01.427Z,18.60
2023-03-21T09:21:29.160Z,19.70
2023-03-21T09:23:57.533Z,18.20
2023-03-21T09:26:26.776Z,19.30
2023-03-21T09:28:55.687Z,19.00
2023-03-21T09:31:23.490Z,17.20
2023-03-21T09:33:52.981Z,17.00
2023-03-21T09:36:20.633Z,17.70
2023-03-21T09:38:49.243Z,18.80
2023-03-21T09:41:38.896Z,14.60
2023-03-21T09:44:06.690Z,14.10
2023-03-21T09:46:45.791Z,18.60
2023-03-21T09:49:18.235Z,20.60
2023-03-21T09:51:49.461Z,17.60
2023-03-21T09:54:32.860Z,13.50
2023-03-21T09:57:10.918Z,14.40
2023-03-21T09:59:39.559Z,15.40
2023-03-21T10:02:36.504Z,18.30
2023-03-21T10:05:15.177Z,18.00
2023-03-21T10:07:46.848Z,23.70
2023-03-21T10:10:18.955Z,21.70
2023-03-21T10:12:50.206Z,21.10
2023-03-21T10:15:20.347Z,21.50
2023-03-21T10:18:01.631Z,25.60
2023-03-21T10:20:35.059Z,20.30
2023-03-21T10:23:12.472Z,15.40
2023-03-21T10:25:48.638Z,20.20
2023-03-21T10:28:20.974Z,16.30
2023-03-21T10:30:58.857Z,15.10
2023-03-21T10:33:32.250Z,15.30
2023-03-21T10:36:05.425Z,12.30
2023-03-21T10:38:34.209Z,18.90
2023-03-21T10:41:01.780Z,17.00
2023-03-21T10:43:29.358Z,17.70
2023-03-21T10:45:57.347Z,14.40
2023-03-21T10:48:25.505Z,16.70
2023-03-21T10:50:55.319Z,14.10
2023-03-21T10:53:27.518Z,12.90
2023-03-21T10:55:58.990Z,14.40
2023-03-21T10:58:35.150Z,16.10
2023-03-21T11:01:05.197Z,16.80
2023-03-21T11:03:38.946Z,18.30
2023-03-21T11:06:30.156Z,13.10
2023-03-21T11:09:05.689Z,17.30
2023-03-21T11:11:42.138Z,18.60
2023-03-21T11:14:26.143Z,14.60
2023-03-21T11:16:53.772Z,16.70
2023-03-21T11:19:35.800Z,12.70
2023-03-21T11:22:07.870Z,17.40
2023-03-21T11:24:36.211Z,15.30
2023-03-21T11:27:08.584Z,11.80
2023-03-21T11:29:38.560Z,11.30
2023-03-21T11:32:10.573Z,13.50
2023-03-21T11:34:51.561Z,16.70
2023-03-21T11:37:31.290Z,17.00
2023-03-21T11:40:32.674Z,16.10
2023-03-21T11:43:04.866Z,13.80
2023-03-21T11:45:34.936Z,14.30
2023-03-21T11:48:12.641Z,12.40
2023-03-21T11:50:43.376Z,12.10
2023-03-21T11:53:49.684Z,14.10
2023-03-21T11:56:32.413Z,19.70
2023-03-21T11:59:21.952Z,17.00
2023-03-21T12:02:14.346Z,13.00
2023-03-21T12:04:56.977Z,16.80
2023-03-21T12:07:48.762Z,17.10
2023-03-21T12:10:31.386Z,16.70
2023-03-21T12:13:24.209Z,15.80
2023-03-21T12:16:03.763Z,17.80
2023-03-21T12:18:44.193Z,16.20
2023-03-21T12:21:20.764Z,13.50
2023-03-21T12:23:50.974Z,18.90
2023-03-21T12:26:26.396Z,15.30
2023-03-21T12:29:06.726Z,14.30
2023-03-21T12:31:57.090Z,16.60
2023-03-21T12:34:30.572Z,15.00
2023-03-21T12:37:09.435Z,13.10
2023-03-21T12:39:40.395Z,17.00
2023-03-21T12:42:26.984Z,14.30
2023-03-21T12:45:06.288Z,14.20
2023-03-21T12:47:42.733Z,15.30
2023-03-21T12:50:31.529Z,12.30
2023-03-21T12:53:05.422Z,13.00
2023-03-21T12:55:35.236Z,15.20
2023-03-21T12:58:06.793Z,11.40
2023-03-21T13:00:41.924Z,15.00
2023-03-21T13:03:20.980Z,11.60
2023-03-21T13:05:55.407Z,14.10
2023-03-21T13:09:02.074Z,12.40
2023-03-21T13:11:31.248Z,11.10
2023-03-21T13:14:13.729Z,11.30
2023-03-21T13:16:49.608Z,16.50
2023-03-21T13:19:37.279Z,16.30
2023-03-21T13:22:16.544Z,16.80
2023-03-21T13:25:15.572Z,17.40
2023-03-21T13:27:43.263Z,12.50
2023-03-21T13:30:24.383Z,12.50
2023-03-21T13:33:16.449Z,13.70
2023-03-21T13:35:45.671Z,14.70
2023-03-21T13:38:20.458Z,14.90
2023-03-21T13:40:56.945Z,14.10
2023-03-21T13:43:45.588Z,15.30
2023-03-21T13:46:14.318Z,13.70
2023-03-21T13:48:58.569Z,11.00
2023-03-21T13:51:29.641Z,16.70
2023-03-21T13:54:07.283Z,9.90
2023-03-21T13:56:47.147Z,13.10
2023-03-21T13:59:19.172Z,16.10
2023-03-21T14:02:28.331Z,17.60
2023-03-21T14:05:07.031Z,16.70
2023-03-21T14:07:41.222Z,21.10
2023-03-21T14:10:20.129Z,21.70
2023-03-21T14:12:49.081Z,20.20
2023-03-21T14:15:23.373Z,20.50
2023-03-21T14:18:00.338Z,10.00
2023-03-21T14:20:33.665Z,21.00
2023-03-21T14:23:04.231Z,17.10
2023-03-21T14:25:46.747Z,23.20
2023-03-21T14:28:17.102Z,19.90
2023-03-21T14:30:45.203Z,20.80
2023-03-21T14:33:32.382Z,17.00
2023-03-21T14:36:04.839Z,19.90
2023-03-21T14:38:36.306Z,16.10
2023-03-21T14:41:04.924Z,14.60
2023-03-21T14:43:32.597Z,21.90
2023-03-21T14:46:01.196Z,19.60
2023-03-21T14:48:33.924Z,18.40
2023-03-21T14:51:05.021Z,19.70
2023-03-21T14:53:37.887Z,16.10
2023-03-21T14:56:21.835Z,18.60
2023-03-21T14:58:50.033Z,19.70
2023-03-21T15:01:27.765Z,18.70
2023-03-21T15:03:55.689Z,13.90
2023-03-21T15:06:23.272Z,19.00
2023-03-21T15:09:04.286Z,17.90
2023-03-21T15:11:38.338Z,17.20
2023-03-21T15:14:08.517Z,19.70
2023-03-21T15:16:37.053Z,17.10
2023-03-21T15:19:05.203Z,14.80
2023-03-21T15:21:40.252Z,18.20
2023-03-21T15:24:14.862Z,18.00
2023-03-21T15:26:49.720Z,16.30
2023-03-21T15:29:18.377Z,16.50
2023-03-21T15:31:48.011Z,16.90
2023-03-21T15:34:24.671Z,14.50
2023-03-21T15:37:01.501Z,14.20
2023-03-21T15:39:29.527Z,14.20
2023-03-21T15:41:59.096Z,12.10
2023-03-21T15:44:27.594Z,12.80
2023-03-21T15:46:55.691Z,14.40
2023-03-21T15:49:34.410Z,14.80
2023-03-21T15:52:16.549Z,14.80
2023-03-21T15:54:47.378Z,14.00
2023-03-21T15:57:23.909Z,13.90
2023-03-21T15:59:56.549Z,14.40
2023-03-21T16:02:29.605Z,14.00
2023-03-21T16:05:00.272Z,13.40
2023-03-21T16:07:28.534Z,13.20
2023-03-21T16:10:02.069Z,15.00
2023-03-21T16:12:29.756Z,13.80
2023-03-21T16:14:57.294Z,13.50
2023-03-21T16:17:36.003Z,17.20
2023-03-21T16:20:39.231Z,28.00
2023-03-21T16:23:08.924Z,23.30
2023-03-21T16:25:36.667Z,21.90
2023-03-21T16:28:04.793Z,21.30
2023-03-21T16:30:32.373Z,21.10
2023-03-21T16:33:00.060Z,29.90
2023-03-21T16:35:27.839Z,31.60
2023-03-21T16:37:55.462Z,26.90
2023-03-21T16:40:31.183Z,23.00
2023-03-21T16:42:58.949Z,22.70
2023-03-21T16:45:26.838Z,20.50
2023-03-21T16:47:55.054Z,21.80
2023-03-21T16:50:27.894Z,22.80
2023-03-21T16:52:56.696Z,27.50
2023-03-21T16:55:25.016Z,31.60
2023-03-21T16:57:53.607Z,35.20
2023-03-21T17:00:27.077Z,31.10
2023-03-21T17:02:57.149Z,28.90
2023-03-21T17:05:27.964Z,24.20
2023-03-21T17:07:56.344Z,23.90
2023-03-21T17:10:27.560Z,24.80
2023-03-21T17:12:55.388Z,23.70
2023-03-21T17:15:23.051Z,24.40
2023-03-21T17:17:50.647Z,25.80
2023-03-21T17:20:22.671Z,25.60
2023-03-21T17:22:50.461Z,24.90
2023-03-21T17:25:19.228Z,26.70
2023-03-21T17:27:48.078Z,27.10
2023-03-21T17:30:31.949Z,28.30
2023-03-21T17:32:59.981Z,28.20
2023-03-21T17:35:28.515Z,28.90
2023-03-21T17:37:57.819Z,28.10
2023-03-21T17:40:31.638Z,26.50
2023-03-21T17:43:00.108Z,27.80
2023-03-21T17:45:28.200Z,28.80
2023-03-21T17:47:55.854Z,30.10
2023-03-21T17:50:32.528Z,30.60
2023-03-21T17:53:00.188Z,27.20
2023-03-21T17:55:27.865Z,28.00
2023-03-21T17:57:55.756Z,27.60
2023-03-21T18:00:27.468Z,29.30
2023-03-21T18:02:55.335Z,30.10
2023-03-21T18:05:24.350Z,30.40
2023-03-21T18:10:41.788Z,31.60
2023-03-21T18:13:10.259Z,30.00
2023-03-21T18:15:38.545Z,29.80
2023-03-21T18:18:06.245Z,30.70
2023-03-21T18:23:21.982Z,29.50
2023-03-21T18:25:50.450Z,28.70
2023-03-21T18:28:21.143Z,28.50
2023-03-21T18:31:08.576Z,26.40
2023-03-21T18:33:38.873Z,24.20
2023-03-21T18:36:08.726Z,24.70
2023-03-21T18:38:37.109Z,24.30
2023-03-21T18:41:06.762Z,26.00
2023-03-21T18:46:24.191Z,27.90
2023-03-21T18:48:52.006Z,28.20
2023-03-21T18:51:19.590Z,29.10
2023-03-21T18:53:47.495Z,32.20
2023-03-21T18:56:54.756Z,32.80
2023-03-21T18:59:04.568Z,37.50
2023-03-21T19:01:32.371Z,37.40
2023-03-21T19:04:20.438Z,40.30
2023-03-21T19:06:48.499Z,45.60
2023-03-21T19:09:18.101Z,44.40
2023-03-21T19:11:46.804Z,45.60
2023-03-21T19:14:16.671Z,45.40
2023-03-21T19:17:26.687Z,41.80
2023-03-21T19:19:32.102Z,39.90
2023-03-21T19:22:00.035Z,38.60
2023-03-21T19:24:29.039Z,39.90
2023-03-21T19:26:56.749Z,35.10
2023-03-21T19:29:25.185Z,37.70
2023-03-21T19:31:53.124Z,36.90
2023-03-21T19:34:21.169Z,38.50
2023-03-21T19:36:51.813Z,40.30
2023-03-21T19:39:21.039Z,40.30
2023-03-21T19:41:50.014Z,38.60
2023-03-21T19:44:18.664Z,35.80
2023-03-21T19:46:46.396Z,38.00
2023-03-21T19:49:15.167Z,36.90
2023-03-21T19:51:42.771Z,36.50
2023-03-21T19:54:10.402Z,34.80
2023-03-21T19:56:37.993Z,36.40
2023-03-21T19:59:07.030Z,38.10
2023-03-21T20:01:34.622Z,40.30
2023-03-21T20:04:02.282Z,43.80
2023-03-21T20:06:29.857Z,41.50
2023-03-21T20:09:42.965Z,44.80
2023-03-21T20:11:45.007Z,38.20
2023-03-21T20:14:12.579Z,43.50
2023-03-21T20:16:43.324Z,45.50
2023-03-21T20:19:13.146Z,44.10
2023-03-21T20:21:48.550Z,42.40
2023-03-21T20:24:17.400Z,45.20
2023-03-21T20:26:45.421Z,43.10
2023-03-21T20:30:07.076Z,42.90
2023-03-21T20:32:00.789Z,43.80
2023-03-21T20:34:29.094Z,41.60
2023-03-21T20:36:58.276Z,44.10
2023-03-21T20:39:28.560Z,44.40
2023-03-21T20:41:59.407Z,38.80
2023-03-21T20:44:57.184Z,40.20
2023-03-21T20:47:15.081Z,41.70
2023-03-21T20:49:42.693Z,43.10
2023-03-21T20:54:58.080Z,42.50
2023-03-21T20:57:26.442Z,41.10
2023-03-21T20:59:54.948Z,42.20
2023-03-21T21:02:23.507Z,37.10
2023-03-21T21:05:21.533Z,40.10
2023-03-21T21:07:40.262Z,42.00
2023-03-21T21:10:14.228Z,40.60
2023-03-21T21:12:42.348Z,37.90
2023-03-21T21:15:10.227Z,42.30
2023-03-21T21:18:04.083Z,38.80
2023-03-21T21:20:25.965Z,38.10
2023-03-21T21:22:59.605Z,36.90
2023-03-21T21:25:31.435Z,48.00
2023-03-21T21:27:59.110Z,39.30
2023-03-21T21:30:26.683Z,37.90
2023-03-21T21:32:54.255Z,43.10
2023-03-21T21:35:21.849Z,44.30
2023-03-21T21:37:49.572Z,49.70
2023-03-21T21:40:17.166Z,46.70
2023-03-21T21:42:44.831Z,42.90
2023-03-21T21:45:13.237Z,49.90
2023-03-21T21:47:42.955Z,49.80
2023-03-21T21:50:10.859Z,51.10
2023-03-21T21:52:38.478Z,51.80
2023-03-21T21:55:06.393Z,50.30
2023-03-21T21:57:33.990Z,49.90
2023-03-21T22:00:02.268Z,48.10
2023-03-21T22:02:29.911Z,50.50
2023-03-21T22:04:57.517Z,47.90
2023-03-21T22:07:28.546Z,47.90
2023-03-21T22:09:56.199Z,46.60
2023-03-21T22:12:23.776Z,49.70
2023-03-21T22:14:51.494Z,51.60
2023-03-21T22:17:19.049Z,48.20
2023-03-21T22:20:02.565Z,48.10
2023-03-21T22:22:37.031Z,43.90
2023-03-21T22:25:06.061Z,50.50
2023-03-21T22:27:34.160Z,51.50
2023-03-21T22:30:02.273Z,46.50
2023-03-21T22:32:39.484Z,40.50
2023-03-21T22:35:08.045Z,42.70
2023-03-21T22:37:38.189Z,38.50
2023-03-21T22:40:08.364Z,39.30
2023-03-21T22:42:37.053Z,42.40
2023-03-21T22:45:05.782Z,42.50
2023-03-21T22:47:33.632Z,42.10
2023-03-21T22:50:01.232Z,41.40
2023-03-21T22:52:28.844Z,46.10
2023-03-21T22:54:56.411Z,53.10
2023-03-21T22:57:25.366Z,53.10
2023-03-21T22:59:52.939Z,63.30
2023-03-21T23:02:20.607Z,65.10
2023-03-21T23:04:48.278Z,55.70
2023-03-21T23:07:15.912Z,55.70
2023-03-21T23:09:45.007Z,48.20
2023-03-21T23:12:12.597Z,42.80
2023-03-21T23:14:40.197Z,46.30
2023-03-21T23:17:07.813Z,47.00
2023-03-21T23:19:35.481Z,46.80
2023-03-21T23:22:03.095Z,44.70
2023-03-21T23:24:30.715Z,46.70
2023-03-21T23:26:58.289Z,40.10
2023-03-21T23:29:26.457Z,46.30
2023-03-21T23:31:54.128Z,53.20
2023-03-21T23:34:21.944Z,63.20
2023-03-21T23:36:49.528Z,64.80
2023-03-21T23:39:17.099Z,47.00
2023-03-21T23:41:44.718Z,45.00
2023-03-21T23:44:12.283Z,53.60
2023-03-21T23:46:39.894Z,41.30
2023-03-21T23:49:07.574Z,45.90
2023-03-21T23:51:35.188Z,42.10
2023-03-21T23:54:02.758Z,51.20
2023-03-21T23:56:30.365Z,42.30
2023-03-21T23:58:58.088Z,41.90
